createdAt,value
2019-05-18T00:01:42.710Z,12.10
2019-05-18T00:04:11.311Z,12.10
2019-05-18T00:06:39.870Z,12.10
2019-05-18T00:09:08.433Z,12.20
2019-05-18T00:11:37.043Z,12.10
2019-05-18T00:14:05.757Z,12.10
2019-05-18T00:16:34.241Z,12.10
2019-05-18T00:19:02.801Z,12.10
2019-05-18T00:21:31.278Z,12.10
2019-05-18T00:23:59.833Z,12.20
2019-05-18T00:26:28.357Z,12.30
2019-05-18T00:28:56.953Z,12.20
2019-05-18T00:31:25.493Z,12.30
2019-05-18T00:33:54.095Z,12.30
2019-05-18T00:36:22.617Z,12.30
2019-05-18T00:38:51.127Z,12.30
2019-05-18T00:41:19.642Z,12.30
2019-05-18T00:43:48.245Z,12.40
2019-05-18T00:46:16.740Z,12.30
2019-05-18T00:48:45.420Z,12.40
2019-05-18T00:51:14.098Z,12.30
2019-05-18T00:53:44.278Z,12.40
2019-05-18T00:56:12.877Z,12.40
2019-05-18T00:58:41.589Z,12.40
2019-05-18T01:01:10.088Z,12.50
2019-05-18T01:03:38.694Z,12.50
2019-05-18T01:06:07.309Z,12.50
2019-05-18T01:08:35.883Z,12.60
2019-05-18T01:11:04.546Z,12.60
2019-05-18T01:13:33.361Z,12.50
2019-05-18T01:16:01.906Z,12.50
2019-05-18T01:18:30.411Z,12.50
2019-05-18T01:20:59.249Z,12.50
2019-05-18T01:23:28.019Z,12.50
2019-05-18T01:25:56.540Z,12.50
2019-05-18T01:28:25.261Z,12.50
2019-05-18T01:30:53.924Z,12.50
2019-05-18T01:33:22.627Z,12.50
2019-05-18T01:35:51.247Z,12.50
2019-05-18T01:38:22.178Z,12.50
2019-05-18T01:40:51.056Z,12.50
2019-05-18T01:43:19.543Z,12.50
2019-05-18T01:45:48.295Z,12.50
2019-05-18T01:48:16.875Z,12.50
2019-05-18T01:50:45.539Z,12.50
2019-05-18T01:53:14.011Z,12.60
2019-05-18T01:55:42.868Z,12.50
2019-05-18T01:58:11.519Z,12.50
2019-05-18T02:00:40.073Z,12.50
2019-05-18T02:03:08.763Z,12.50
2019-05-18T02:05:37.674Z,12.50
2019-05-18T02:08:06.278Z,12.50
2019-05-18T02:10:35.077Z,12.50
2019-05-18T02:13:03.608Z,12.40
2019-05-18T02:15:32.287Z,12.50
2019-05-18T02:18:00.907Z,12.40
2019-05-18T02:20:29.890Z,12.40
2019-05-18T02:22:58.364Z,12.40
2019-05-18T02:25:26.940Z,12.40
2019-05-18T02:27:55.590Z,12.40
2019-05-18T02:30:24.327Z,12.40
2019-05-18T02:32:52.934Z,12.40
2019-05-18T02:35:21.624Z,12.40
2019-05-18T02:37:50.176Z,12.40
2019-05-18T02:40:18.937Z,12.30
2019-05-18T02:42:47.520Z,12.30
2019-05-18T02:45:16.332Z,12.30
2019-05-18T02:47:44.954Z,12.20
2019-05-18T02:50:13.811Z,12.30
2019-05-18T02:52:42.391Z,12.20
2019-05-18T02:55:11.086Z,12.20
2019-05-18T02:57:39.766Z,12.20
2019-05-18T03:00:11.576Z,12.20
2019-05-18T03:02:40.196Z,12.20
2019-05-18T03:05:09.187Z,12.20
2019-05-18T03:07:37.705Z,12.20
2019-05-18T03:10:08.046Z,12.20
2019-05-18T03:12:36.707Z,12.30
2019-05-18T03:15:06.888Z,12.30
2019-05-18T03:17:35.585Z,12.30
2019-05-18T03:20:06.854Z,12.30
2019-05-18T03:22:35.423Z,12.30
2019-05-18T03:25:05.772Z,12.30
2019-05-18T03:27:34.321Z,12.30
2019-05-18T03:30:04.142Z,12.40
2019-05-18T03:32:32.778Z,12.40
2019-05-18T03:35:01.488Z,12.40
2019-05-18T03:37:30.474Z,12.40
2019-05-18T03:39:59.095Z,12.40
2019-05-18T03:42:28.106Z,12.50
2019-05-18T03:44:56.695Z,12.50
2019-05-18T03:47:25.206Z,12.40
2019-05-18T03:49:54.409Z,12.50
2019-05-18T03:52:23.036Z,12.50
2019-05-18T03:54:51.921Z,12.50
2019-05-18T03:57:20.505Z,12.50
2019-05-18T03:59:49.167Z,12.50
2019-05-18T04:02:17.877Z,12.60
2019-05-18T04:04:46.464Z,12.60
2019-05-18T04:07:14.998Z,12.60
2019-05-18T04:09:43.587Z,12.60
2019-05-18T04:12:12.379Z,12.70
2019-05-18T04:14:41.039Z,12.70
2019-05-18T04:17:11.297Z,12.70
2019-05-18T04:19:46.501Z,12.80
2019-05-18T04:22:10.234Z,12.90
2019-05-18T04:24:38.818Z,12.90
2019-05-18T04:27:07.465Z,12.90
2019-05-18T04:29:36.224Z,13.00
2019-05-18T04:32:05.103Z,13.00
2019-05-18T04:34:33.629Z,13.00
2019-05-18T04:37:02.156Z,13.00
2019-05-18T04:39:30.812Z,13.00
2019-05-18T04:41:59.498Z,13.00
2019-05-18T04:44:29.101Z,13.10
2019-05-18T04:46:57.690Z,13.20
2019-05-18T04:49:26.320Z,13.30
2019-05-18T04:51:54.848Z,13.40
2019-05-18T04:54:23.394Z,13.50
2019-05-18T04:56:52.086Z,13.60
2019-05-18T04:59:20.766Z,13.80
2019-05-18T05:01:49.430Z,13.80
2019-05-18T05:04:18.069Z,13.90
2019-05-18T05:06:46.588Z,13.90
2019-05-18T05:09:15.137Z,14.00
2019-05-18T05:11:43.747Z,13.90
2019-05-18T05:14:13.296Z,13.90
2019-05-18T05:16:43.408Z,13.90
2019-05-18T05:19:11.935Z,13.90
2019-05-18T05:21:40.487Z,13.90
2019-05-18T05:24:08.981Z,13.90
2019-05-18T05:26:39.459Z,13.90
2019-05-18T05:29:07.803Z,13.90
2019-05-18T05:31:36.437Z,13.90
2019-05-18T05:34:05.127Z,13.90
2019-05-18T05:36:33.707Z,13.90
2019-05-18T05:39:02.234Z,14.00
2019-05-18T05:41:30.828Z,14.10
2019-05-18T05:43:59.357Z,14.20
2019-05-18T05:46:27.919Z,14.60
2019-05-18T05:48:56.386Z,15.00
2019-05-18T05:51:24.931Z,15.20
2019-05-18T05:53:53.606Z,15.50
2019-05-18T05:56:22.264Z,15.50
2019-05-18T05:58:50.744Z,15.80
2019-05-18T06:01:19.243Z,16.60
2019-05-18T06:03:47.782Z,17.40
2019-05-18T06:06:16.568Z,18.00
2019-05-18T06:08:45.054Z,18.60
2019-05-18T06:11:13.661Z,19.50
2019-05-18T06:13:42.179Z,20.20
2019-05-18T06:16:11.484Z,20.20
2019-05-18T06:18:40.120Z,19.60
2019-05-18T06:21:09.216Z,19.50
2019-05-18T06:23:37.773Z,19.80
2019-05-18T06:26:06.363Z,19.90
2019-05-18T06:28:34.933Z,19.80
2019-05-18T06:31:03.737Z,19.70
2019-05-18T06:33:32.210Z,19.50
2019-05-18T06:36:01.113Z,19.20
2019-05-18T06:38:31.829Z,19.90
2019-05-18T06:41:00.378Z,20.90
2019-05-18T06:43:29.199Z,21.70
2019-05-18T06:45:57.686Z,21.90
2019-05-18T06:48:26.231Z,22.10
2019-05-18T06:51:06.798Z,21.80
2019-05-18T06:53:27.903Z,21.50
2019-05-18T06:55:56.944Z,21.90
2019-05-18T06:58:26.441Z,22.30
2019-05-18T07:00:55.156Z,22.90
2019-05-18T07:03:23.871Z,23.10
2019-05-18T07:05:53.415Z,23.80
2019-05-18T07:08:22.084Z,24.40
2019-05-18T07:10:50.773Z,23.80
2019-05-18T07:13:19.327Z,23.60
2019-05-18T07:15:47.803Z,22.40
2019-05-18T07:18:16.448Z,21.70
2019-05-18T07:20:44.968Z,21.40
2019-05-18T07:23:29.046Z,21.40
2019-05-18T07:25:57.607Z,22.00
2019-05-18T07:28:26.065Z,22.50
2019-05-18T07:30:54.531Z,23.30
2019-05-18T07:33:23.187Z,24.30
2019-05-18T07:35:51.786Z,25.10
2019-05-18T07:38:20.278Z,25.00
2019-05-18T07:40:49.008Z,25.40
2019-05-18T07:43:17.577Z,25.20
2019-05-18T07:45:46.247Z,24.70
2019-05-18T07:48:16.410Z,23.80
2019-05-18T07:50:45.045Z,24.20
2019-05-18T07:53:13.615Z,24.80
2019-05-18T07:55:42.235Z,24.60
2019-05-18T07:58:10.795Z,25.20
2019-05-18T08:00:39.582Z,25.70
2019-05-18T08:03:26.167Z,26.50
2019-05-18T08:05:54.698Z,26.60
2019-05-18T08:08:23.489Z,26.10
2019-05-18T08:10:52.044Z,26.10
2019-05-18T08:13:20.599Z,25.90
2019-05-18T08:15:49.328Z,25.80
2019-05-18T08:18:17.910Z,25.20
2019-05-18T08:20:46.509Z,25.00
2019-05-18T08:23:15.007Z,25.20
2019-05-18T08:25:43.650Z,25.80
2019-05-18T08:28:12.252Z,26.00
2019-05-18T08:30:40.805Z,26.60
2019-05-18T08:33:09.364Z,26.40
2019-05-18T08:35:37.971Z,26.90
2019-05-18T08:38:06.464Z,26.10
2019-05-18T08:40:34.987Z,25.80
2019-05-18T08:43:03.515Z,25.50
2019-05-18T08:45:31.989Z,24.80
2019-05-18T08:48:02.608Z,23.40
2019-05-18T08:50:31.114Z,22.70
2019-05-18T08:52:59.878Z,22.30
2019-05-18T08:55:28.438Z,23.20
2019-05-18T08:57:56.982Z,23.90
2019-05-18T09:00:25.522Z,22.90
2019-05-18T09:02:54.460Z,23.10
2019-05-18T09:05:23.025Z,23.90
2019-05-18T09:07:51.608Z,24.80
2019-05-18T09:10:20.212Z,25.60
2019-05-18T09:12:52.744Z,26.10
2019-05-18T09:15:21.641Z,26.50
2019-05-18T09:17:50.212Z,26.20
2019-05-18T09:20:19.149Z,26.10
2019-05-18T09:22:47.776Z,25.90
2019-05-18T09:25:19.251Z,25.60
2019-05-18T09:27:47.984Z,25.80
2019-05-18T09:30:16.780Z,24.90
2019-05-18T09:32:45.678Z,24.40
2019-05-18T09:35:14.747Z,24.40
2019-05-18T09:37:43.474Z,25.10
2019-05-18T09:40:12.518Z,24.90
2019-05-18T09:42:41.340Z,24.40
2019-05-18T09:45:14.153Z,23.70
2019-05-18T09:47:42.707Z,23.30
2019-05-18T09:50:12.869Z,22.90
2019-05-18T09:52:45.246Z,22.50
2019-05-18T09:55:12.194Z,23.00
2019-05-18T09:57:40.877Z,23.70
2019-05-18T10:00:11.394Z,24.00
2019-05-18T10:02:40.025Z,24.10
2019-05-18T10:05:08.800Z,24.00
2019-05-18T10:07:37.345Z,24.30
2019-05-18T10:10:07.983Z,24.50
2019-05-18T10:12:36.486Z,24.30
2019-05-18T10:15:08.093Z,24.00
2019-05-18T10:17:36.551Z,23.00
2019-05-18T10:20:08.997Z,23.00
2019-05-18T10:22:51.248Z,23.50
2019-05-18T10:25:08.460Z,23.50
2019-05-18T10:27:36.925Z,23.70
2019-05-18T10:30:07.916Z,24.20
2019-05-18T10:32:37.647Z,23.40
2019-05-18T10:35:07.783Z,23.40
2019-05-18T10:37:36.491Z,23.70
2019-05-18T10:40:08.671Z,23.90
2019-05-18T10:42:37.330Z,24.00
2019-05-18T10:45:09.256Z,23.30
2019-05-18T10:47:37.923Z,23.00
2019-05-18T10:50:07.428Z,22.70
2019-05-18T10:52:35.913Z,22.60
2019-05-18T10:55:08.937Z,23.50
2019-05-18T10:57:37.487Z,24.30
2019-05-18T11:00:08.710Z,24.60
2019-05-18T11:02:37.300Z,25.00
2019-05-18T11:05:09.214Z,25.20
2019-05-18T11:07:37.901Z,24.60
2019-05-18T11:10:10.620Z,24.70
2019-05-18T11:12:39.411Z,24.90
2019-05-18T11:15:10.128Z,24.70
2019-05-18T11:17:38.797Z,24.90
2019-05-18T11:20:09.413Z,24.90
2019-05-18T11:22:38.859Z,25.10
2019-05-18T11:25:08.550Z,24.60
2019-05-18T11:27:37.134Z,23.80
2019-05-18T11:30:10.760Z,23.50
2019-05-18T11:32:39.286Z,22.60
2019-05-18T11:35:08.796Z,22.10
2019-05-18T11:37:37.352Z,21.70
2019-05-18T11:40:10.685Z,22.10
2019-05-18T11:42:40.971Z,22.20
2019-05-18T11:45:12.513Z,22.10
2019-05-18T11:47:41.263Z,22.20
2019-05-18T11:50:11.187Z,21.80
2019-05-18T11:52:39.977Z,21.60
2019-05-18T11:55:09.191Z,21.70
2019-05-18T11:57:37.952Z,21.50
2019-05-18T12:00:08.899Z,21.40
2019-05-18T12:02:37.481Z,21.40
2019-05-18T12:05:07.425Z,21.20
2019-05-18T12:07:40.628Z,21.20
2019-05-18T12:10:09.811Z,21.00
2019-05-18T12:12:41.551Z,21.00
2019-05-18T12:15:12.551Z,21.60
2019-05-18T12:17:41.092Z,22.00
2019-05-18T12:20:10.408Z,22.00
2019-05-18T12:22:40.733Z,22.20
2019-05-18T12:25:09.645Z,22.30
2019-05-18T12:27:38.324Z,22.10
2019-05-18T12:30:09.046Z,21.90
2019-05-18T12:32:37.538Z,21.80
2019-05-18T12:35:08.205Z,21.80
2019-05-18T12:37:36.905Z,21.80
2019-05-18T12:40:07.554Z,22.00
2019-05-18T12:42:43.557Z,21.90
2019-05-18T12:45:12.674Z,22.00
2019-05-18T12:47:41.167Z,22.00
2019-05-18T12:50:11.900Z,21.70
2019-05-18T12:52:40.427Z,21.50
2019-05-18T12:55:15.812Z,21.50
2019-05-18T12:57:39.944Z,21.20
2019-05-18T13:00:19.804Z,21.10
2019-05-18T13:02:45.832Z,21.10
2019-05-18T13:05:14.444Z,21.10
2019-05-18T13:07:42.973Z,21.30
2019-05-18T13:10:12.719Z,21.40
2019-05-18T13:12:43.950Z,21.70
2019-05-18T13:15:13.414Z,21.80
2019-05-18T13:17:42.120Z,22.10
2019-05-18T13:20:13.718Z,22.00
2019-05-18T13:22:42.463Z,21.90
2019-05-18T13:25:15.483Z,21.90
2019-05-18T13:27:43.976Z,21.90
2019-05-18T13:30:13.557Z,21.80
2019-05-18T13:32:42.128Z,22.00
2019-05-18T13:35:11.106Z,22.20
2019-05-18T13:37:39.684Z,22.20
2019-05-18T13:40:09.697Z,22.10
2019-05-18T13:42:38.239Z,22.00
2019-05-18T13:45:13.155Z,22.00
2019-05-18T13:47:41.653Z,22.00
2019-05-18T13:50:10.481Z,22.20
2019-05-18T13:52:39.094Z,22.20
2019-05-18T13:55:09.070Z,22.20
2019-05-18T13:57:37.713Z,22.20
2019-05-18T14:00:07.706Z,22.10
2019-05-18T14:02:36.191Z,21.90
2019-05-18T14:05:06.305Z,22.00
2019-05-18T14:07:34.870Z,22.10
2019-05-18T14:10:04.724Z,21.90
2019-05-18T14:12:33.210Z,21.90
2019-05-18T14:15:01.819Z,22.00
2019-05-18T14:17:30.471Z,21.90
2019-05-18T14:19:59.034Z,21.90
2019-05-18T14:22:27.719Z,22.10
2019-05-18T14:24:56.260Z,22.40
2019-05-18T14:27:24.951Z,22.40
2019-05-18T14:29:53.542Z,22.50
2019-05-18T14:32:22.184Z,22.50
2019-05-18T14:34:50.888Z,22.30
2019-05-18T14:37:19.428Z,22.40
2019-05-18T14:39:48.012Z,22.30
2019-05-18T14:42:16.719Z,22.30
2019-05-18T14:44:45.418Z,22.10
2019-05-18T14:47:14.058Z,22.00
2019-05-18T14:49:42.595Z,21.90
2019-05-18T14:52:14.462Z,22.00
2019-05-18T14:54:43.181Z,21.80
2019-05-18T14:57:11.788Z,21.70
2019-05-18T14:59:40.283Z,21.70
2019-05-18T15:02:08.799Z,21.90
2019-05-18T15:04:37.379Z,22.00
2019-05-18T15:07:05.930Z,22.00
2019-05-18T15:09:34.528Z,21.90
2019-05-18T15:12:03.105Z,21.80
2019-05-18T15:14:31.749Z,21.80
2019-05-18T15:17:00.281Z,21.80
2019-05-18T15:19:28.854Z,21.80
2019-05-18T15:21:57.450Z,21.80
2019-05-18T15:24:25.976Z,21.80
2019-05-18T15:26:54.503Z,21.80
2019-05-18T15:29:23.075Z,21.80
2019-05-18T15:31:51.599Z,21.90
2019-05-18T15:34:20.224Z,21.90
2019-05-18T15:36:48.784Z,21.90
2019-05-18T15:39:17.322Z,21.70
2019-05-18T15:41:45.930Z,21.90
2019-05-18T15:44:14.440Z,21.80
2019-05-18T15:46:43.051Z,21.60
2019-05-18T15:49:13.578Z,21.50
2019-05-18T15:51:44.647Z,21.50
2019-05-18T15:54:13.231Z,21.30
2019-05-18T15:56:44.189Z,21.10
2019-05-18T15:59:13.242Z,21.30
2019-05-18T16:01:41.771Z,21.40
2019-05-18T16:04:10.357Z,21.50
2019-05-18T16:06:38.969Z,21.80
2019-05-18T16:09:07.626Z,21.90
2019-05-18T16:11:37.739Z,22.00
2019-05-18T16:14:14.813Z,22.20
2019-05-18T16:16:43.324Z,22.40
2019-05-18T16:19:14.859Z,22.60
2019-05-18T16:21:43.386Z,22.70
2019-05-18T16:24:11.904Z,22.70
2019-05-18T16:26:40.558Z,22.70
2019-05-18T16:29:09.181Z,22.00
2019-05-18T16:31:37.825Z,21.40
2019-05-18T16:34:07.689Z,20.90
2019-05-18T16:36:36.237Z,20.30
2019-05-18T16:39:07.522Z,19.90
2019-05-18T16:41:36.241Z,19.70
2019-05-18T16:44:07.135Z,19.50
2019-05-18T16:46:39.976Z,19.40
2019-05-18T16:49:09.977Z,19.30
2019-05-18T16:51:38.459Z,19.30
2019-05-18T16:54:07.027Z,19.20
2019-05-18T16:56:35.622Z,19.20
2019-05-18T16:59:04.229Z,19.10
2019-05-18T17:01:32.788Z,19.00
2019-05-18T17:04:01.237Z,18.90
2019-05-18T17:06:29.839Z,19.00
2019-05-18T17:08:58.388Z,18.90
2019-05-18T17:11:26.950Z,18.90
2019-05-18T17:13:55.499Z,18.90
2019-05-18T17:16:24.091Z,18.80
2019-05-18T17:18:52.625Z,18.70
2019-05-18T17:21:21.187Z,18.50
2019-05-18T17:23:49.778Z,18.40
2019-05-18T17:26:18.316Z,18.20
2019-05-18T17:28:46.901Z,18.10
2019-05-18T17:31:15.443Z,18.00
2019-05-18T17:33:43.938Z,17.90
2019-05-18T17:36:12.472Z,17.80
2019-05-18T17:38:41.078Z,17.70
2019-05-18T17:41:09.676Z,17.70
2019-05-18T17:43:38.266Z,17.60
2019-05-18T17:46:06.751Z,17.60
2019-05-18T17:48:35.341Z,17.50
2019-05-18T17:51:03.945Z,17.40
2019-05-18T17:53:32.393Z,17.30
2019-05-18T17:56:00.884Z,17.10
2019-05-18T17:58:29.368Z,17.10
2019-05-18T18:00:57.838Z,17.00
2019-05-18T18:03:26.374Z,16.90
2019-05-18T18:05:54.979Z,16.80
2019-05-18T18:08:23.465Z,16.60
2019-05-18T18:10:51.941Z,16.50
2019-05-18T18:13:20.641Z,16.50
2019-05-18T18:15:49.120Z,16.40
2019-05-18T18:18:17.584Z,16.20
2019-05-18T18:20:46.080Z,16.10
2019-05-18T18:23:14.694Z,16.00
2019-05-18T18:25:43.203Z,15.80
2019-05-18T18:28:11.684Z,15.70
2019-05-18T18:30:40.248Z,15.50
2019-05-18T18:33:08.715Z,15.30
2019-05-18T18:35:39.568Z,15.30
2019-05-18T18:38:07.391Z,15.10
2019-05-18T18:40:35.881Z,15.00
2019-05-18T18:43:04.359Z,14.90
2019-05-18T18:45:32.899Z,14.80
2019-05-18T18:48:01.424Z,14.80
2019-05-18T18:50:29.933Z,14.70
2019-05-18T18:52:59.452Z,14.70
2019-05-18T18:55:28.108Z,14.60
2019-05-18T18:57:56.576Z,14.50
2019-05-18T19:00:25.054Z,14.40
2019-05-18T19:02:53.606Z,14.40
2019-05-18T19:05:22.117Z,14.40
2019-05-18T19:07:50.666Z,14.40
2019-05-18T19:10:19.425Z,14.30
2019-05-18T19:12:47.932Z,14.40
2019-05-18T19:15:17.220Z,14.30
2019-05-18T19:17:45.874Z,14.30
2019-05-18T19:20:15.814Z,14.30
2019-05-18T19:22:44.324Z,14.30
2019-05-18T19:25:13.393Z,14.30
2019-05-18T19:27:54.098Z,14.30
2019-05-18T19:30:16.164Z,14.30
2019-05-18T19:32:45.047Z,14.30
2019-05-18T19:35:13.835Z,14.20
2019-05-18T19:37:42.343Z,14.20
2019-05-18T19:40:11.175Z,14.20
2019-05-18T19:42:39.701Z,14.20
2019-05-18T19:45:10.481Z,14.10
2019-05-18T19:47:39.021Z,14.10
2019-05-18T19:50:07.848Z,14.00
2019-05-18T19:52:36.453Z,14.10
2019-05-18T19:55:06.398Z,14.10
2019-05-18T19:57:34.936Z,14.00
2019-05-18T20:00:07.766Z,14.00
2019-05-18T20:02:36.391Z,14.00
2019-05-18T20:05:08.940Z,14.00
2019-05-18T20:07:37.671Z,13.90
2019-05-18T20:10:08.270Z,13.90
2019-05-18T20:12:36.818Z,13.80
2019-05-18T20:15:09.338Z,13.70
2019-05-18T20:17:39.882Z,13.60
2019-05-18T20:20:08.631Z,13.60
2019-05-18T20:22:37.162Z,13.50
2019-05-18T20:25:06.779Z,13.50
2019-05-18T20:27:35.575Z,13.50
2019-05-18T20:30:05.930Z,13.40
2019-05-18T20:32:34.526Z,13.40
2019-05-18T20:35:03.050Z,13.30
2019-05-18T20:37:31.895Z,13.30
2019-05-18T20:40:00.531Z,13.30
2019-05-18T20:42:29.559Z,13.20
2019-05-18T20:44:58.076Z,13.20
2019-05-18T20:47:26.586Z,13.20
2019-05-18T20:49:55.302Z,13.20
2019-05-18T20:52:23.870Z,13.20
2019-05-18T20:54:52.387Z,13.20
2019-05-18T20:57:20.850Z,13.10
2019-05-18T20:59:49.501Z,13.20
2019-05-18T21:02:18.019Z,13.10
2019-05-18T21:04:46.517Z,13.10
2019-05-18T21:07:14.966Z,13.10
2019-05-18T21:09:43.478Z,13.10
2019-05-18T21:12:12.023Z,13.10
2019-05-18T21:14:40.583Z,13.00
2019-05-18T21:17:09.182Z,13.00
2019-05-18T21:19:37.669Z,12.90
2019-05-18T21:22:06.196Z,12.90
2019-05-18T21:24:34.733Z,12.90
2019-05-18T21:27:03.256Z,13.00
2019-05-18T21:29:31.782Z,13.00
2019-05-18T21:32:00.371Z,13.00
2019-05-18T21:34:28.882Z,12.90
2019-05-18T21:36:57.591Z,12.90
2019-05-18T21:39:26.197Z,12.90
2019-05-18T21:41:54.662Z,12.80
2019-05-18T21:44:23.119Z,12.80
2019-05-18T21:46:51.653Z,12.80
2019-05-18T21:49:20.229Z,12.80
2019-05-18T21:51:48.807Z,12.80
2019-05-18T21:54:17.282Z,12.70
2019-05-18T21:56:45.739Z,12.70
2019-05-18T21:59:16.910Z,12.70
2019-05-18T22:01:45.486Z,12.70
2019-05-18T22:04:14.004Z,12.70
2019-05-18T22:06:44.014Z,12.70
2019-05-18T22:09:12.788Z,12.60
2019-05-18T22:11:44.623Z,12.60
2019-05-18T22:14:17.843Z,12.50
2019-05-18T22:16:52.636Z,12.50
2019-05-18T22:19:20.874Z,12.40
2019-05-18T22:21:50.151Z,12.40
2019-05-18T22:24:18.669Z,12.20
2019-05-18T22:26:47.173Z,12.20
2019-05-18T22:29:15.633Z,12.20
2019-05-18T22:31:48.452Z,12.10
2019-05-18T22:34:16.952Z,12.10
2019-05-18T22:36:45.419Z,12.00
2019-05-18T22:39:13.870Z,12.10
2019-05-18T22:41:42.326Z,12.10
2019-05-18T22:44:11.443Z,12.10
2019-05-18T22:46:39.959Z,12.10
2019-05-18T22:49:08.423Z,12.10
2019-05-18T22:51:36.903Z,12.00
2019-05-18T22:54:05.474Z,12.00
2019-05-18T22:56:39.719Z,12.00
2019-05-18T22:59:08.191Z,11.90
2019-05-18T23:01:36.703Z,11.90
2019-05-18T23:04:05.154Z,11.90
2019-05-18T23:06:33.663Z,11.90
2019-05-18T23:09:02.165Z,12.00
2019-05-18T23:11:30.635Z,12.00
2019-05-18T23:13:59.099Z,11.90
2019-05-18T23:16:27.557Z,11.90
2019-05-18T23:18:57.327Z,11.90
2019-05-18T23:21:25.965Z,11.90
2019-05-18T23:23:56.012Z,11.90
2019-05-18T23:26:24.528Z,11.80
2019-05-18T23:28:53.508Z,11.80
2019-05-18T23:31:22.045Z,11.90
2019-05-18T23:33:50.533Z,11.90
2019-05-18T23:36:19.055Z,11.90
2019-05-18T23:38:47.581Z,11.90
2019-05-18T23:41:16.120Z,11.80
2019-05-18T23:43:44.667Z,11.80
2019-05-18T23:46:13.187Z,11.80
2019-05-18T23:48:41.668Z,11.70
2019-05-18T23:51:10.232Z,11.70
2019-05-18T23:53:38.773Z,11.70
2019-05-18T23:56:07.215Z,11.70
2019-05-18T23:58:35.753Z,11.70
